sensor_id;sensor_type;location;lat;lon;timestamp;temperature;humidity
44509;DHT22;30214;52.246;14.408;2023-01-09T00:01:42;5.00;99.90
44509;DHT22;30214;52.246;14.408;2023-01-09T00:04:13;5.00;99.90
44509;DHT22;30214;52.246;14.408;2023-01-09T00:06:40;5.10;99.90
44509;DHT22;30214;52.246;14.408;2023-01-09T00:09:08;5.00;99.90
44509;DHT22;30214;52.246;14.408;2023-01-09T00:11:36;5.00;99.90
44509;DHT22;30214;52.246;14.408;2023-01-09T00:14:03;5.00;99.90
44509;DHT22;30214;52.246;14.408;2023-01-09T00:16:30;5.00;99.90
44509;DHT22;30214;52.246;14.408;2023-01-09T00:18:58;5.00;99.90
44509;DHT22;30214;52.246;14.408;2023-01-09T00:21:26;5.10;99.90
44509;DHT22;30214;52.246;14.408;2023-01-09T00:23:54;5.10;99.90
44509;DHT22;30214;52.246;14.408;2023-01-09T00:26:21;5.10;99.90
44509;DHT22;30214;52.246;14.408;2023-01-09T00:28:50;5.10;99.90
44509;DHT22;30214;52.246;14.408;2023-01-09T00:31:19;5.00;99.90
44509;DHT22;30214;52.246;14.408;2023-01-09T00:33:51;5.00;99.90
44509;DHT22;30214;52.246;14.408;2023-01-09T00:36:20;5.00;99.90
44509;DHT22;30214;52.246;14.408;2023-01-09T00:38:49;5.00;99.90
44509;DHT22;30214;52.246;14.408;2023-01-09T00:41:19;5.00;99.90
44509;DHT22;30214;52.246;14.408;2023-01-09T00:43:52;5.00;99.90
44509;DHT22;30214;52.246;14.408;2023-01-09T00:46:25;5.00;99.90
44509;DHT22;30214;52.246;14.408;2023-01-09T00:48:54;5.00;99.90
44509;DHT22;30214;52.246;14.408;2023-01-09T00:51:22;5.00;99.90
44509;DHT22;30214;52.246;14.408;2023-01-09T00:53:51;4.90;99.90
44509;DHT22;30214;52.246;14.408;2023-01-09T00:56:20;4.90;99.90
44509;DHT22;30214;52.246;14.408;2023-01-09T00:58:48;4.90;99.90
44509;DHT22;30214;52.246;14.408;2023-01-09T01:01:17;5.00;99.90
44509;DHT22;30214;52.246;14.408;2023-01-09T01:03:44;5.00;99.90
44509;DHT22;30214;52.246;14.408;2023-01-09T01:06:11;5.00;99.90
44509;DHT22;30214;52.246;14.408;2023-01-09T01:08:57;5.00;99.90
44509;DHT22;30214;52.246;14.408;2023-01-09T01:11:24;4.90;99.90
44509;DHT22;30214;52.246;14.408;2023-01-09T01:13:52;4.90;99.90
44509;DHT22;30214;52.246;14.408;2023-01-09T01:16:19;4.90;99.90
44509;DHT22;30214;52.246;14.408;2023-01-09T01:18:46;4.90;99.90
44509;DHT22;30214;52.246;14.408;2023-01-09T01:21:13;4.90;99.90
44509;DHT22;30214;52.246;14.408;2023-01-09T01:23:41;4.90;99.90
44509;DHT22;30214;52.246;14.408;2023-01-09T01:26:14;4.90;99.90
44509;DHT22;30214;52.246;14.408;2023-01-09T01:28:42;4.80;99.90
44509;DHT22;30214;52.246;14.408;2023-01-09T01:31:15;4.80;99.90
44509;DHT22;30214;52.246;14.408;2023-01-09T01:33:43;4.80;99.90
44509;DHT22;30214;52.246;14.408;2023-01-09T01:36:10;4.80;99.90
44509;DHT22;30214;52.246;14.408;2023-01-09T01:38:40;4.80;99.90
44509;DHT22;30214;52.246;14.408;2023-01-09T01:41:07;4.80;99.90
44509;DHT22;30214;52.246;14.408;2023-01-09T01:43:50;4.80;99.90
44509;DHT22;30214;52.246;14.408;2023-01-09T01:46:18;4.80;99.90
44509;DHT22;30214;52.246;14.408;2023-01-09T01:48:47;4.80;99.90
44509;DHT22;30214;52.246;14.408;2023-01-09T01:51:17;4.70;99.90
44509;DHT22;30214;52.246;14.408;2023-01-09T01:53:48;4.70;99.90
44509;DHT22;30214;52.246;14.408;2023-01-09T01:56:21;4.60;99.90
44509;DHT22;30214;52.246;14.408;2023-01-09T01:58:53;4.60;99.90
44509;DHT22;30214;52.246;14.408;2023-01-09T02:01:23;4.50;99.90
44509;DHT22;30214;52.246;14.408;2023-01-09T02:03:52;4.40;99.90
44509;DHT22;30214;52.246;14.408;2023-01-09T02:06:21;4.40;99.90
44509;DHT22;30214;52.246;14.408;2023-01-09T02:08:49;4.40;99.90
44509;DHT22;30214;52.246;14.408;2023-01-09T02:11:18;4.40;99.90
44509;DHT22;30214;52.246;14.408;2023-01-09T02:13:46;4.30;99.90
44509;DHT22;30214;52.246;14.408;2023-01-09T02:16:28;4.30;99.90
44509;DHT22;30214;52.246;14.408;2023-01-09T02:19:10;4.20;99.90
44509;DHT22;30214;52.246;14.408;2023-01-09T02:21:52;4.20;99.90
44509;DHT22;30214;52.246;14.408;2023-01-09T02:24:53;4.30;99.90
44509;DHT22;30214;52.246;14.408;2023-01-09T02:28:08;4.20;99.90
44509;DHT22;30214;52.246;14.408;2023-01-09T02:30:51;4.20;99.90
44509;DHT22;30214;52.246;14.408;2023-01-09T02:33:43;4.20;99.90
44509;DHT22;30214;52.246;14.408;2023-01-09T02:36:22;4.20;99.90
44509;DHT22;30214;52.246;14.408;2023-01-09T02:39:05;4.00;99.90
44509;DHT22;30214;52.246;14.408;2023-01-09T02:41:45;4.00;99.90
44509;DHT22;30214;52.246;14.408;2023-01-09T02:44:16;4.10;99.90
44509;DHT22;30214;52.246;14.408;2023-01-09T02:46:45;4.10;99.90
44509;DHT22;30214;52.246;14.408;2023-01-09T02:49:13;4.10;99.90
44509;DHT22;30214;52.246;14.408;2023-01-09T02:51:50;4.10;99.90
44509;DHT22;30214;52.246;14.408;2023-01-09T02:54:25;4.10;99.90
44509;DHT22;30214;52.246;14.408;2023-01-09T02:57:19;4.10;99.90
44509;DHT22;30214;52.246;14.408;2023-01-09T03:00:06;4.00;99.90
44509;DHT22;30214;52.246;14.408;2023-01-09T03:02:46;4.00;99.90
44509;DHT22;30214;52.246;14.408;2023-01-09T03:05:24;4.00;99.90
44509;DHT22;30214;52.246;14.408;2023-01-09T03:07:58;4.00;99.90
44509;DHT22;30214;52.246;14.408;2023-01-09T03:10:32;4.00;99.90
44509;DHT22;30214;52.246;14.408;2023-01-09T03:13:02;4.00;99.90
44509;DHT22;30214;52.246;14.408;2023-01-09T03:15:33;4.00;99.90
44509;DHT22;30214;52.246;14.408;2023-01-09T03:18:04;4.00;99.90
44509;DHT22;30214;52.246;14.408;2023-01-09T03:20:33;4.00;99.90
44509;DHT22;30214;52.246;14.408;2023-01-09T03:23:03;4.00;99.90
44509;DHT22;30214;52.246;14.408;2023-01-09T03:25:32;3.90;99.90
44509;DHT22;30214;52.246;14.408;2023-01-09T03:28:01;4.00;99.90
44509;DHT22;30214;52.246;14.408;2023-01-09T03:30:30;4.00;99.90
44509;DHT22;30214;52.246;14.408;2023-01-09T03:32:58;3.90;99.90
44509;DHT22;30214;52.246;14.408;2023-01-09T03:35:27;3.90;99.90
44509;DHT22;30214;52.246;14.408;2023-01-09T03:37:54;3.90;99.90
44509;DHT22;30214;52.246;14.408;2023-01-09T03:40:23;3.90;99.90
44509;DHT22;30214;52.246;14.408;2023-01-09T03:42:50;3.80;99.90
44509;DHT22;30214;52.246;14.408;2023-01-09T03:45:17;3.80;99.90
44509;DHT22;30214;52.246;14.408;2023-01-09T03:47:44;3.70;99.90
44509;DHT22;30214;52.246;14.408;2023-01-09T03:50:11;3.70;99.90
44509;DHT22;30214;52.246;14.408;2023-01-09T03:52:40;3.70;99.90
44509;DHT22;30214;52.246;14.408;2023-01-09T03:55:08;3.60;99.90
44509;DHT22;30214;52.246;14.408;2023-01-09T03:57:37;3.50;99.90
44509;DHT22;30214;52.246;14.408;2023-01-09T04:00:06;3.40;99.90
44509;DHT22;30214;52.246;14.408;2023-01-09T04:02:37;3.40;99.90
44509;DHT22;30214;52.246;14.408;2023-01-09T04:05:06;3.30;99.90
44509;DHT22;30214;52.246;14.408;2023-01-09T04:07:33;3.20;99.90
44509;DHT22;30214;52.246;14.408;2023-01-09T04:10:02;3.30;99.90
44509;DHT22;30214;52.246;14.408;2023-01-09T04:12:30;3.30;99.90
44509;DHT22;30214;52.246;14.408;2023-01-09T04:14:57;3.30;99.90
44509;DHT22;30214;52.246;14.408;2023-01-09T04:17:24;3.30;99.90
44509;DHT22;30214;52.246;14.408;2023-01-09T04:19:51;3.30;99.90
44509;DHT22;30214;52.246;14.408;2023-01-09T04:22:18;3.30;99.90
44509;DHT22;30214;52.246;14.408;2023-01-09T04:24:45;3.30;99.90
44509;DHT22;30214;52.246;14.408;2023-01-09T04:27:13;3.20;99.90
44509;DHT22;30214;52.246;14.408;2023-01-09T04:29:40;3.30;99.90
44509;DHT22;30214;52.246;14.408;2023-01-09T04:32:07;3.30;99.90
44509;DHT22;30214;52.246;14.408;2023-01-09T04:34:34;3.30;99.90
44509;DHT22;30214;52.246;14.408;2023-01-09T04:37:01;3.30;99.90
44509;DHT22;30214;52.246;14.408;2023-01-09T04:39:29;3.30;99.90
44509;DHT22;30214;52.246;14.408;2023-01-09T04:41:56;3.30;99.90
44509;DHT22;30214;52.246;14.408;2023-01-09T04:44:25;3.30;99.90
44509;DHT22;30214;52.246;14.408;2023-01-09T04:46:53;3.30;99.90
44509;DHT22;30214;52.246;14.408;2023-01-09T04:49:21;3.40;99.90
44509;DHT22;30214;52.246;14.408;2023-01-09T04:51:48;3.40;99.90
44509;DHT22;30214;52.246;14.408;2023-01-09T04:54:15;3.40;99.90
44509;DHT22;30214;52.246;14.408;2023-01-09T04:56:43;3.50;99.90
44509;DHT22;30214;52.246;14.408;2023-01-09T04:59:10;3.50;99.90
44509;DHT22;30214;52.246;14.408;2023-01-09T05:01:39;3.50;99.90
44509;DHT22;30214;52.246;14.408;2023-01-09T05:04:06;3.40;99.90
44509;DHT22;30214;52.246;14.408;2023-01-09T05:06:33;3.40;99.90
44509;DHT22;30214;52.246;14.408;2023-01-09T05:09:00;3.40;99.90
44509;DHT22;30214;52.246;14.408;2023-01-09T05:11:27;3.50;99.90
44509;DHT22;30214;52.246;14.408;2023-01-09T05:13:54;3.40;99.90
44509;DHT22;30214;52.246;14.408;2023-01-09T05:16:21;3.40;99.90
44509;DHT22;30214;52.246;14.408;2023-01-09T05:18:50;3.50;99.90
44509;DHT22;30214;52.246;14.408;2023-01-09T05:21:21;3.50;99.90
44509;DHT22;30214;52.246;14.408;2023-01-09T05:23:48;3.50;99.90
44509;DHT22;30214;52.246;14.408;2023-01-09T05:26:15;3.50;99.90
44509;DHT22;30214;52.246;14.408;2023-01-09T05:28:42;3.60;99.90
44509;DHT22;30214;52.246;14.408;2023-01-09T05:31:10;3.60;99.90
44509;DHT22;30214;52.246;14.408;2023-01-09T05:33:37;3.60;99.90
44509;DHT22;30214;52.246;14.408;2023-01-09T05:36:06;3.60;99.90
44509;DHT22;30214;52.246;14.408;2023-01-09T05:38:33;3.60;99.90
44509;DHT22;30214;52.246;14.408;2023-01-09T05:41:00;3.70;99.90
44509;DHT22;30214;52.246;14.408;2023-01-09T05:43:27;3.80;99.90
44509;DHT22;30214;52.246;14.408;2023-01-09T05:45:54;3.80;99.90
44509;DHT22;30214;52.246;14.408;2023-01-09T05:48:21;3.80;99.90
44509;DHT22;30214;52.246;14.408;2023-01-09T05:50:49;3.80;99.90
44509;DHT22;30214;52.246;14.408;2023-01-09T05:53:20;3.90;99.90
44509;DHT22;30214;52.246;14.408;2023-01-09T05:55:48;3.90;99.90
44509;DHT22;30214;52.246;14.408;2023-01-09T05:58:15;3.90;99.90
44509;DHT22;30214;52.246;14.408;2023-01-09T06:00:42;4.00;99.90
44509;DHT22;30214;52.246;14.408;2023-01-09T06:03:09;4.00;99.90
44509;DHT22;30214;52.246;14.408;2023-01-09T06:05:37;3.90;99.90
44509;DHT22;30214;52.246;14.408;2023-01-09T06:08:04;4.00;99.90
44509;DHT22;30214;52.246;14.408;2023-01-09T06:10:33;4.00;99.90
44509;DHT22;30214;52.246;14.408;2023-01-09T06:13:00;4.10;99.90
44509;DHT22;30214;52.246;14.408;2023-01-09T06:15:28;4.10;99.90
44509;DHT22;30214;52.246;14.408;2023-01-09T06:17:55;4.10;99.90
44509;DHT22;30214;52.246;14.408;2023-01-09T06:20:22;4.00;99.90
44509;DHT22;30214;52.246;14.408;2023-01-09T06:22:49;4.00;99.90
44509;DHT22;30214;52.246;14.408;2023-01-09T06:25:18;4.00;99.90
44509;DHT22;30214;52.246;14.408;2023-01-09T06:27:46;4.00;99.90
44509;DHT22;30214;52.246;14.408;2023-01-09T06:30:15;4.10;99.90
44509;DHT22;30214;52.246;14.408;2023-01-09T06:32:42;4.00;99.90
44509;DHT22;30214;52.246;14.408;2023-01-09T06:35:10;4.00;99.90
44509;DHT22;30214;52.246;14.408;2023-01-09T06:37:37;4.00;99.90
44509;DHT22;30214;52.246;14.408;2023-01-09T06:40:05;4.00;99.90
44509;DHT22;30214;52.246;14.408;2023-01-09T06:42:32;4.00;99.90
44509;DHT22;30214;52.246;14.408;2023-01-09T06:45:01;4.10;99.90
44509;DHT22;30214;52.246;14.408;2023-01-09T06:47:28;4.00;99.90
44509;DHT22;30214;52.246;14.408;2023-01-09T06:49:55;4.00;99.90
44509;DHT22;30214;52.246;14.408;2023-01-09T06:52:22;4.00;99.90
44509;DHT22;30214;52.246;14.408;2023-01-09T06:54:49;4.10;99.90
44509;DHT22;30214;52.246;14.408;2023-01-09T06:57:16;4.10;99.90
44509;DHT22;30214;52.246;14.408;2023-01-09T06:59:43;4.10;99.90
44509;DHT22;30214;52.246;14.408;2023-01-09T07:02:16;4.20;99.90
44509;DHT22;30214;52.246;14.408;2023-01-09T07:04:44;4.20;99.90
44509;DHT22;30214;52.246;14.408;2023-01-09T07:07:12;4.20;99.90
44509;DHT22;30214;52.246;14.408;2023-01-09T07:09:39;4.20;99.90
44509;DHT22;30214;52.246;14.408;2023-01-09T07:12:06;4.20;99.90
44509;DHT22;30214;52.246;14.408;2023-01-09T07:14:33;4.20;99.90
44509;DHT22;30214;52.246;14.408;2023-01-09T07:17:01;4.20;99.90
44509;DHT22;30214;52.246;14.408;2023-01-09T07:19:29;4.20;99.90
44509;DHT22;30214;52.246;14.408;2023-01-09T07:21:56;4.20;99.90
44509;DHT22;30214;52.246;14.408;2023-01-09T07:24:23;4.20;99.90
44509;DHT22;30214;52.246;14.408;2023-01-09T07:26:50;4.20;99.90
44509;DHT22;30214;52.246;14.408;2023-01-09T07:29:17;4.30;99.90
44509;DHT22;30214;52.246;14.408;2023-01-09T07:31:44;4.30;99.90
44509;DHT22;30214;52.246;14.408;2023-01-09T07:34:11;4.30;99.90
44509;DHT22;30214;52.246;14.408;2023-01-09T07:36:42;4.30;99.90
44509;DHT22;30214;52.246;14.408;2023-01-09T07:39:11;4.40;99.90
44509;DHT22;30214;52.246;14.408;2023-01-09T07:41:38;4.40;99.90
44509;DHT22;30214;52.246;14.408;2023-01-09T07:44:08;4.40;99.90
44509;DHT22;30214;52.246;14.408;2023-01-09T07:46:37;4.30;99.90
44509;DHT22;30214;52.246;14.408;2023-01-09T07:49:07;4.30;99.90
44509;DHT22;30214;52.246;14.408;2023-01-09T07:51:34;4.40;99.90
44509;DHT22;30214;52.246;14.408;2023-01-09T07:54:05;4.50;99.90
44509;DHT22;30214;52.246;14.408;2023-01-09T07:56:32;4.40;99.90
44509;DHT22;30214;52.246;14.408;2023-01-09T07:58:59;4.30;99.90
44509;DHT22;30214;52.246;14.408;2023-01-09T08:01:26;4.30;99.90
44509;DHT22;30214;52.246;14.408;2023-01-09T08:03:53;4.30;99.90
44509;DHT22;30214;52.246;14.408;2023-01-09T08:06:20;4.30;99.90
44509;DHT22;30214;52.246;14.408;2023-01-09T08:08:47;4.30;99.90
44509;DHT22;30214;52.246;14.408;2023-01-09T08:11:16;4.30;99.90
44509;DHT22;30214;52.246;14.408;2023-01-09T08:13:43;4.40;99.90
44509;DHT22;30214;52.246;14.408;2023-01-09T08:16:13;4.40;99.90
44509;DHT22;30214;52.246;14.408;2023-01-09T08:18:40;4.40;99.90
44509;DHT22;30214;52.246;14.408;2023-01-09T08:21:07;4.30;99.90
44509;DHT22;30214;52.246;14.408;2023-01-09T08:23:36;4.30;99.90
44509;DHT22;30214;52.246;14.408;2023-01-09T08:26:03;4.30;99.90
44509;DHT22;30214;52.246;14.408;2023-01-09T08:28:32;4.40;99.90
44509;DHT22;30214;52.246;14.408;2023-01-09T08:30:59;4.40;99.90
44509;DHT22;30214;52.246;14.408;2023-01-09T08:33:26;4.40;99.90
44509;DHT22;30214;52.246;14.408;2023-01-09T08:35:53;4.60;99.90
44509;DHT22;30214;52.246;14.408;2023-01-09T08:38:20;4.60;99.90
44509;DHT22;30214;52.246;14.408;2023-01-09T08:40:47;4.70;99.90
44509;DHT22;30214;52.246;14.408;2023-01-09T08:43:15;4.80;99.90
44509;DHT22;30214;52.246;14.408;2023-01-09T08:46:01;4.90;99.90
44509;DHT22;30214;52.246;14.408;2023-01-09T08:48:45;5.00;99.90
44509;DHT22;30214;52.246;14.408;2023-01-09T08:51:13;5.20;99.90
44509;DHT22;30214;52.246;14.408;2023-01-09T08:53:40;5.40;99.90
44509;DHT22;30214;52.246;14.408;2023-01-09T08:56:07;5.40;99.90
44509;DHT22;30214;52.246;14.408;2023-01-09T08:58:35;5.50;99.90
44509;DHT22;30214;52.246;14.408;2023-01-09T09:01:05;5.60;99.90
44509;DHT22;30214;52.246;14.408;2023-01-09T09:03:33;5.60;99.90
44509;DHT22;30214;52.246;14.408;2023-01-09T09:06:00;5.60;99.90
44509;DHT22;30214;52.246;14.408;2023-01-09T09:08:27;5.60;99.90
44509;DHT22;30214;52.246;14.408;2023-01-09T09:10:54;5.70;99.90
44509;DHT22;30214;52.246;14.408;2023-01-09T09:13:21;5.70;99.90
44509;DHT22;30214;52.246;14.408;2023-01-09T09:15:48;5.70;99.90
44509;DHT22;30214;52.246;14.408;2023-01-09T09:18:17;5.80;99.90
44509;DHT22;30214;52.246;14.408;2023-01-09T09:20:44;5.80;99.90
44509;DHT22;30214;52.246;14.408;2023-01-09T09:23:11;5.80;99.90
44509;DHT22;30214;52.246;14.408;2023-01-09T09:25:38;5.80;99.90
44509;DHT22;30214;52.246;14.408;2023-01-09T09:28:06;5.90;99.90
44509;DHT22;30214;52.246;14.408;2023-01-09T09:30:33;5.90;99.90
44509;DHT22;30214;52.246;14.408;2023-01-09T09:33:01;5.90;99.90
44509;DHT22;30214;52.246;14.408;2023-01-09T09:35:30;6.00;99.90
44509;DHT22;30214;52.246;14.408;2023-01-09T09:38:00;5.90;99.90
44509;DHT22;30214;52.246;14.408;2023-01-09T09:40:46;6.00;99.90
44509;DHT22;30214;52.246;14.408;2023-01-09T09:43:44;6.00;99.90
44509;DHT22;30214;52.246;14.408;2023-01-09T09:46:42;6.10;99.90
44509;DHT22;30214;52.246;14.408;2023-01-09T09:49:20;6.20;99.90
44509;DHT22;30214;52.246;14.408;2023-01-09T09:51:57;6.20;99.90
44509;DHT22;30214;52.246;14.408;2023-01-09T09:54:32;6.20;99.90
44509;DHT22;30214;52.246;14.408;2023-01-09T09:57:03;6.20;99.90
44509;DHT22;30214;52.246;14.408;2023-01-09T09:59:32;6.30;99.90
44509;DHT22;30214;52.246;14.408;2023-01-09T10:02:04;6.30;99.90
44509;DHT22;30214;52.246;14.408;2023-01-09T10:04:49;6.40;99.90
44509;DHT22;30214;52.246;14.408;2023-01-09T10:07:23;6.40;99.90
44509;DHT22;30214;52.246;14.408;2023-01-09T10:09:54;6.40;99.90
44509;DHT22;30214;52.246;14.408;2023-01-09T10:12:27;6.40;99.90
44509;DHT22;30214;52.246;14.408;2023-01-09T10:14:57;6.40;99.90
44509;DHT22;30214;52.246;14.408;2023-01-09T10:17:53;6.30;99.90
44509;DHT22;30214;52.246;14.408;2023-01-09T10:20:38;6.30;99.90
44509;DHT22;30214;52.246;14.408;2023-01-09T10:23:36;6.30;99.90
44509;DHT22;30214;52.246;14.408;2023-01-09T10:26:23;6.40;99.90
44509;DHT22;30214;52.246;14.408;2023-01-09T10:29:12;6.40;99.90
44509;DHT22;30214;52.246;14.408;2023-01-09T10:31:54;6.50;99.90
44509;DHT22;30214;52.246;14.408;2023-01-09T10:34:37;6.50;99.90
44509;DHT22;30214;52.246;14.408;2023-01-09T10:37:11;6.50;99.90
44509;DHT22;30214;52.246;14.408;2023-01-09T10:39:44;6.50;99.90
44509;DHT22;30214;52.246;14.408;2023-01-09T10:42:18;6.50;99.90
44509;DHT22;30214;52.246;14.408;2023-01-09T10:44:52;6.50;99.90
44509;DHT22;30214;52.246;14.408;2023-01-09T10:47:24;6.60;99.90
44509;DHT22;30214;52.246;14.408;2023-01-09T10:49:53;6.70;99.90
44509;DHT22;30214;52.246;14.408;2023-01-09T10:52:25;6.70;99.90
44509;DHT22;30214;52.246;14.408;2023-01-09T10:55:02;6.80;99.90
44509;DHT22;30214;52.246;14.408;2023-01-09T10:57:43;6.70;99.90
44509;DHT22;30214;52.246;14.408;2023-01-09T11:00:16;6.80;99.90
44509;DHT22;30214;52.246;14.408;2023-01-09T11:02:45;6.80;99.90
44509;DHT22;30214;52.246;14.408;2023-01-09T11:05:16;6.80;99.90
44509;DHT22;30214;52.246;14.408;2023-01-09T11:07:48;6.80;99.90
44509;DHT22;30214;52.246;14.408;2023-01-09T11:10:20;6.80;99.90
44509;DHT22;30214;52.246;14.408;2023-01-09T11:12:47;6.80;99.90
44509;DHT22;30214;52.246;14.408;2023-01-09T11:15:22;6.90;99.90
44509;DHT22;30214;52.246;14.408;2023-01-09T11:17:57;6.80;99.90
44509;DHT22;30214;52.246;14.408;2023-01-09T11:20:42;6.80;99.90
44509;DHT22;30214;52.246;14.408;2023-01-09T11:23:23;6.90;99.90
44509;DHT22;30214;52.246;14.408;2023-01-09T11:25:54;6.90;99.90
44509;DHT22;30214;52.246;14.408;2023-01-09T11:28:22;6.90;99.90
44509;DHT22;30214;52.246;14.408;2023-01-09T11:30:57;6.90;99.90
44509;DHT22;30214;52.246;14.408;2023-01-09T11:33:26;7.00;99.90
44509;DHT22;30214;52.246;14.408;2023-01-09T11:36:05;7.00;99.90
44509;DHT22;30214;52.246;14.408;2023-01-09T11:38:47;7.00;99.90
44509;DHT22;30214;52.246;14.408;2023-01-09T11:41:21;7.00;99.90
44509;DHT22;30214;52.246;14.408;2023-01-09T11:43:50;6.90;99.90
44509;DHT22;30214;52.246;14.408;2023-01-09T11:46:36;7.00;99.90
44509;DHT22;30214;52.246;14.408;2023-01-09T11:49:19;6.90;99.90
44509;DHT22;30214;52.246;14.408;2023-01-09T11:52:10;6.90;99.90
44509;DHT22;30214;52.246;14.408;2023-01-09T11:54:43;6.90;99.90
44509;DHT22;30214;52.246;14.408;2023-01-09T11:57:15;6.90;99.90
44509;DHT22;30214;52.246;14.408;2023-01-09T11:59:43;6.90;99.90
44509;DHT22;30214;52.246;14.408;2023-01-09T12:02:38;6.90;99.90
44509;DHT22;30214;52.246;14.408;2023-01-09T12:05:18;7.00;99.90
44509;DHT22;30214;52.246;14.408;2023-01-09T12:08:07;7.00;99.90
44509;DHT22;30214;52.246;14.408;2023-01-09T12:11:13;7.00;99.90
44509;DHT22;30214;52.246;14.408;2023-01-09T12:17:16;6.90;99.90
44509;DHT22;30214;52.246;14.408;2023-01-09T12:20:13;7.00;99.90
44509;DHT22;30214;52.246;14.408;2023-01-09T12:22:54;7.00;99.90
44509;DHT22;30214;52.246;14.408;2023-01-09T12:25:36;7.00;99.90
44509;DHT22;30214;52.246;14.408;2023-01-09T12:31:58;7.00;99.90
44509;DHT22;30214;52.246;14.408;2023-01-09T12:35:09;7.00;99.90
44509;DHT22;30214;52.246;14.408;2023-01-09T12:38:02;7.10;99.90
44509;DHT22;30214;52.246;14.408;2023-01-09T12:43:38;7.20;99.90
44509;DHT22;30214;52.246;14.408;2023-01-09T12:46:17;7.30;99.90
44509;DHT22;30214;52.246;14.408;2023-01-09T12:49:00;7.30;99.90
44509;DHT22;30214;52.246;14.408;2023-01-09T12:51:46;7.30;99.90
44509;DHT22;30214;52.246;14.408;2023-01-09T12:54:18;7.40;99.90
44509;DHT22;30214;52.246;14.408;2023-01-09T12:56:54;7.40;99.90
44509;DHT22;30214;52.246;14.408;2023-01-09T12:59:30;7.40;99.90
44509;DHT22;30214;52.246;14.408;2023-01-09T13:02:05;7.40;99.90
44509;DHT22;30214;52.246;14.408;2023-01-09T13:04:45;7.40;99.90
44509;DHT22;30214;52.246;14.408;2023-01-09T13:07:18;7.40;99.90
44509;DHT22;30214;52.246;14.408;2023-01-09T13:09:50;7.50;99.90
44509;DHT22;30214;52.246;14.408;2023-01-09T13:12:20;7.50;99.90
44509;DHT22;30214;52.246;14.408;2023-01-09T13:14:52;7.50;99.90
44509;DHT22;30214;52.246;14.408;2023-01-09T13:17:26;7.50;99.90
44509;DHT22;30214;52.246;14.408;2023-01-09T13:19:53;7.60;99.90
44509;DHT22;30214;52.246;14.408;2023-01-09T13:22:23;7.60;99.90
44509;DHT22;30214;52.246;14.408;2023-01-09T13:25:19;7.60;99.90
44509;DHT22;30214;52.246;14.408;2023-01-09T13:28:05;7.70;99.90
44509;DHT22;30214;52.246;14.408;2023-01-09T13:30:58;7.70;99.90
44509;DHT22;30214;52.246;14.408;2023-01-09T13:33:38;7.80;99.90
44509;DHT22;30214;52.246;14.408;2023-01-09T13:36:08;7.80;99.90
44509;DHT22;30214;52.246;14.408;2023-01-09T13:38:48;7.80;99.90
44509;DHT22;30214;52.246;14.408;2023-01-09T13:41:16;8.00;99.90
44509;DHT22;30214;52.246;14.408;2023-01-09T13:44:03;7.80;99.90
44509;DHT22;30214;52.246;14.408;2023-01-09T13:46:38;7.80;99.90
44509;DHT22;30214;52.246;14.408;2023-01-09T13:49:31;7.80;99.90
44509;DHT22;30214;52.246;14.408;2023-01-09T13:52:02;7.80;99.90
44509;DHT22;30214;52.246;14.408;2023-01-09T13:58:24;7.70;99.90
44509;DHT22;30214;52.246;14.408;2023-01-09T14:00:57;7.60;99.90
44509;DHT22;30214;52.246;14.408;2023-01-09T14:03:28;7.60;99.90
44509;DHT22;30214;52.246;14.408;2023-01-09T14:06:14;7.50;99.90
44509;DHT22;30214;52.246;14.408;2023-01-09T14:08:44;7.40;99.90
44509;DHT22;30214;52.246;14.408;2023-01-09T14:11:21;7.40;99.90
44509;DHT22;30214;52.246;14.408;2023-01-09T14:14:01;7.30;99.90
44509;DHT22;30214;52.246;14.408;2023-01-09T14:16:31;7.30;99.90
44509;DHT22;30214;52.246;14.408;2023-01-09T14:19:18;7.30;99.90
44509;DHT22;30214;52.246;14.408;2023-01-09T14:21:53;7.20;99.90
44509;DHT22;30214;52.246;14.408;2023-01-09T14:24:25;7.10;99.90
44509;DHT22;30214;52.246;14.408;2023-01-09T14:26:56;7.00;99.90
44509;DHT22;30214;52.246;14.408;2023-01-09T14:29:40;6.90;99.90
44509;DHT22;30214;52.246;14.408;2023-01-09T14:32:43;6.80;99.90
44509;DHT22;30214;52.246;14.408;2023-01-09T14:35:16;6.80;99.90
44509;DHT22;30214;52.246;14.408;2023-01-09T14:38:01;6.80;99.90
44509;DHT22;30214;52.246;14.408;2023-01-09T14:40:46;6.80;99.90
44509;DHT22;30214;52.246;14.408;2023-01-09T14:43:27;6.70;99.90
44509;DHT22;30214;52.246;14.408;2023-01-09T14:46:03;6.70;99.90
44509;DHT22;30214;52.246;14.408;2023-01-09T14:48:40;6.60;99.90
44509;DHT22;30214;52.246;14.408;2023-01-09T14:51:16;6.50;99.90
44509;DHT22;30214;52.246;14.408;2023-01-09T14:53:45;6.40;99.90
44509;DHT22;30214;52.246;14.408;2023-01-09T14:56:28;6.30;99.90
44509;DHT22;30214;52.246;14.408;2023-01-09T14:59:10;6.40;99.90
44509;DHT22;30214;52.246;14.408;2023-01-09T15:01:41;6.40;99.90
44509;DHT22;30214;52.246;14.408;2023-01-09T15:04:28;6.40;99.90
44509;DHT22;30214;52.246;14.408;2023-01-09T15:06:59;6.40;99.90
44509;DHT22;30214;52.246;14.408;2023-01-09T15:09:42;6.40;99.90
44509;DHT22;30214;52.246;14.408;2023-01-09T15:12:15;6.40;99.90
44509;DHT22;30214;52.246;14.408;2023-01-09T15:14:48;6.30;99.90
44509;DHT22;30214;52.246;14.408;2023-01-09T15:17:19;6.30;99.90
44509;DHT22;30214;52.246;14.408;2023-01-09T15:19:49;6.30;99.90
44509;DHT22;30214;52.246;14.408;2023-01-09T15:22:21;6.30;99.90
44509;DHT22;30214;52.246;14.408;2023-01-09T15:24:51;6.30;99.90
44509;DHT22;30214;52.246;14.408;2023-01-09T15:27:18;6.30;99.90
44509;DHT22;30214;52.246;14.408;2023-01-09T15:29:46;6.30;99.90
44509;DHT22;30214;52.246;14.408;2023-01-09T15:32:16;6.20;99.90
44509;DHT22;30214;52.246;14.408;2023-01-09T15:34:47;6.20;99.90
44509;DHT22;30214;52.246;14.408;2023-01-09T15:37:33;6.20;99.90
44509;DHT22;30214;52.246;14.408;2023-01-09T15:40:05;6.20;99.90
44509;DHT22;30214;52.246;14.408;2023-01-09T15:42:36;6.20;99.90
44509;DHT22;30214;52.246;14.408;2023-01-09T15:45:25;6.10;99.90
44509;DHT22;30214;52.246;14.408;2023-01-09T15:47:54;6.10;99.90
44509;DHT22;30214;52.246;14.408;2023-01-09T15:50:40;6.20;99.90
44509;DHT22;30214;52.246;14.408;2023-01-09T15:53:12;6.20;99.90
44509;DHT22;30214;52.246;14.408;2023-01-09T15:55:41;6.20;99.90
44509;DHT22;30214;52.246;14.408;2023-01-09T15:58:25;6.30;99.90
44509;DHT22;30214;52.246;14.408;2023-01-09T16:00:55;6.40;99.90
44509;DHT22;30214;52.246;14.408;2023-01-09T16:03:25;6.40;99.90
44509;DHT22;30214;52.246;14.408;2023-01-09T16:05:55;6.40;99.90
44509;DHT22;30214;52.246;14.408;2023-01-09T16:08:33;6.40;99.90
44509;DHT22;30214;52.246;14.408;2023-01-09T16:11:04;6.30;99.90
44509;DHT22;30214;52.246;14.408;2023-01-09T16:13:38;6.30;99.90
44509;DHT22;30214;52.246;14.408;2023-01-09T16:16:09;6.20;99.90
44509;DHT22;30214;52.246;14.408;2023-01-09T16:18:48;6.20;99.90